Time;durP1;ratioP1;P1;durP2;ratioP2;P2;SDS_P1;SDS_P2;PMS_P1;PMS_P2;Temp;Humidity;BMP_temperature;BMP_pressure;BME280_temperature;BME280_humidity;BME280_pressure;Samples;Min_cycle;Max_cycle;Signal;HPM_P1;HPM_P2
2021/09/15 00:00:15;;;;;;;7.25;3.75;;;;;;;;;;5062615;28;20078;-56
2021/09/15 00:02:41;;;;;;;6.88;4.25;;;;;;;;;;5050702;28;20033;-57
2021/09/15 00:05:08;;;;;;;5.22;3.88;;;;;;;;;;5041394;28;20025;-56
2021/09/15 00:07:34;;;;;;;6.15;3.63;;;;;;;;;;5047025;28;20112;-57
2021/09/15 00:10:00;;;;;;;7.65;3.78;;;;;;;;;;5061793;28;20457;-57
2021/09/15 00:12:26;;;;;;;7.18;3.90;;;;;;;;;;5052784;28;20460;-58
2021/09/15 00:14:52;;;;;;;6.00;3.92;;;;;;;;;;5052434;28;20128;-56
2021/09/15 00:17:19;;;;;;;6.43;4.15;;;;;;;;;;5060679;28;20033;-56
2021/09/15 00:19:45;;;;;;;7.53;4.47;;;;;;;;;;5054215;28;20129;-58
2021/09/15 00:22:11;;;;;;;5.50;3.80;;;;;;;;;;5054079;28;20055;-55
2021/09/15 00:24:37;;;;;;;7.53;4.75;;;;;;;;;;5055392;28;20037;-57
2021/09/15 00:27:03;;;;;;;5.82;4.05;;;;;;;;;;5059395;28;20500;-57
2021/09/15 00:29:29;;;;;;;6.63;4.22;;;;;;;;;;5058452;28;20028;-57
2021/09/15 00:31:55;;;;;;;7.50;4.25;;;;;;;;;;5061859;28;20115;-56
2021/09/15 00:34:21;;;;;;;8.40;4.78;;;;;;;;;;5054044;28;20017;-57
2021/09/15 00:36:47;;;;;;;6.75;4.35;;;;;;;;;;5059158;28;20027;-55
2021/09/15 00:39:13;;;;;;;6.57;4.35;;;;;;;;;;5047933;28;20037;-57
2021/09/15 00:41:39;;;;;;;7.53;4.32;;;;;;;;;;5049291;28;20057;-56
2021/09/15 00:44:09;;;;;;;7.80;4.53;;;;;;;;;;5052518;28;20120;-57
2021/09/15 00:46:36;;;;;;;7.20;4.57;;;;;;;;;;5055184;28;20033;-56
2021/09/15 00:49:02;;;;;;;8.98;4.88;;;;;;;;;;5049487;28;20119;-58
2021/09/15 00:51:28;;;;;;;8.52;4.80;;;;;;;;;;5048744;28;20037;-57
2021/09/15 00:53:54;;;;;;;5.57;4.07;;;;;;;;;;5049163;28;20164;-56
2021/09/15 00:56:20;;;;;;;8.18;4.28;;;;;;;;;;5054942;28;20105;-57
2021/09/15 00:58:46;;;;;;;6.43;4.15;;;;;;;;;;5052756;28;20033;-56
2021/09/15 01:01:12;;;;;;;5.82;4.20;;;;;;;;;;5050455;28;20036;-54
2021/09/15 01:03:39;;;;;;;6.80;4.53;;;;;;;;;;5054318;28;20103;-53
2021/09/15 01:06:06;;;;;;;5.45;3.95;;;;;;;;;;5053067;28;20033;-56
2021/09/15 01:08:33;;;;;;;6.28;4.30;;;;;;;;;;5065050;28;20169;-56
2021/09/15 01:10:59;;;;;;;6.60;4.22;;;;;;;;;;5053047;28;20037;-57
2021/09/15 01:13:26;;;;;;;7.70;4.20;;;;;;;;;;5061024;28;20621;-54
2021/09/15 01:15:52;;;;;;;7.32;4.57;;;;;;;;;;5031142;28;20032;-55
2021/09/15 01:18:19;;;;;;;5.43;4.15;;;;;;;;;;5055393;28;20037;-53
2021/09/15 01:20:45;;;;;;;6.43;4.20;;;;;;;;;;5061120;28;20033;-55
2021/09/15 01:23:11;;;;;;;6.72;4.30;;;;;;;;;;5063841;28;20107;-56
2021/09/15 01:25:37;;;;;;;7.53;4.70;;;;;;;;;;5052624;28;20112;-55
2021/09/15 01:28:04;;;;;;;8.27;4.57;;;;;;;;;;5059322;28;20033;-57
2021/09/15 01:30:30;;;;;;;6.45;4.60;;;;;;;;;;5054163;28;20071;-55
2021/09/15 01:32:56;;;;;;;6.07;4.20;;;;;;;;;;5053337;28;20029;-52
2021/09/15 01:35:23;;;;;;;9.38;5.13;;;;;;;;;;5046730;28;20022;-54
2021/09/15 01:37:49;;;;;;;9.30;5.55;;;;;;;;;;5056414;28;20063;-56
2021/09/15 01:40:15;;;;;;;13.88;6.18;;;;;;;;;;5054267;28;20116;-56
2021/09/15 01:42:41;;;;;;;8.68;5.63;;;;;;;;;;5036772;28;20020;-56
2021/09/15 01:45:08;;;;;;;8.57;5.18;;;;;;;;;;5042294;28;20033;-52
2021/09/15 01:47:34;;;;;;;8.98;5.32;;;;;;;;;;5056963;28;20119;-57
2021/09/15 01:50:00;;;;;;;7.05;4.57;;;;;;;;;;5048497;28;20065;-56
2021/09/15 01:52:26;;;;;;;9.77;4.80;;;;;;;;;;5052091;28;20452;-52
2021/09/15 01:54:52;;;;;;;9.35;4.72;;;;;;;;;;5048477;28;20132;-52
2021/09/15 01:57:18;;;;;;;7.78;4.88;;;;;;;;;;5051949;28;20024;-55
2021/09/15 01:59:44;;;;;;;7.72;5.15;;;;;;;;;;5053182;28;20397;-54
2021/09/15 02:02:11;;;;;;;9.65;5.90;;;;;;;;;;5045874;28;20041;-57
2021/09/15 02:04:38;;;;;;;10.00;5.00;;;;;;;;;;5055118;28;20125;-54
2021/09/15 02:07:04;;;;;;;6.70;4.97;;;;;;;;;;5044145;28;20106;-55
2021/09/15 02:09:30;;;;;;;9.02;5.40;;;;;;;;;;5051523;28;20032;-55
2021/09/15 02:11:56;;;;;;;9.18;4.80;;;;;;;;;;5053202;28;20016;-54
2021/09/15 02:14:22;;;;;;;9.02;5.82;;;;;;;;;;5056946;28;20021;-54
2021/09/15 02:16:48;;;;;;;8.82;5.63;;;;;;;;;;5023411;28;20021;-55
2021/09/15 02:19:14;;;;;;;8.82;5.03;;;;;;;;;;5047817;28;20044;-55
2021/09/15 02:21:40;;;;;;;9.27;5.45;;;;;;;;;;5052503;28;20048;-56
2021/09/15 02:24:06;;;;;;;11.18;5.93;;;;;;;;;;5050842;28;20029;-53
2021/09/15 02:26:32;;;;;;;8.20;5.63;;;;;;;;;;5048253;28;20116;-56
2021/09/15 02:28:59;;;;;;;10.10;5.57;;;;;;;;;;5056394;28;20079;-55
2021/09/15 02:31:25;;;;;;;7.55;5.20;;;;;;;;;;5034056;28;20025;-55
2021/09/15 02:33:51;;;;;;;10.00;5.80;;;;;;;;;;5058867;28;20074;-55
2021/09/15 02:36:17;;;;;;;7.80;4.90;;;;;;;;;;5042257;28;20074;-52
2021/09/15 02:38:43;;;;;;;10.50;5.72;;;;;;;;;;5055379;28;20044;-57
2021/09/15 02:41:09;;;;;;;8.02;5.18;;;;;;;;;;5055492;28;20419;-54
2021/09/15 02:43:35;;;;;;;7.35;4.95;;;;;;;;;;5052837;28;20103;-55
2021/09/15 02:46:01;;;;;;;7.60;5.28;;;;;;;;;;5042275;28;20029;-53
2021/09/15 02:48:27;;;;;;;9.13;5.97;;;;;;;;;;5047617;28;20029;-55
2021/09/15 02:50:53;;;;;;;9.48;5.38;;;;;;;;;;5044066;28;20642;-54
2021/09/15 02:53:20;;;;;;;8.07;5.35;;;;;;;;;;5050916;28;20021;-55
2021/09/15 02:55:46;;;;;;;7.68;5.00;;;;;;;;;;5049532;28;20032;-55
2021/09/15 02:58:12;;;;;;;11.55;6.05;;;;;;;;;;5046527;28;20507;-53
2021/09/15 03:00:38;;;;;;;10.27;5.57;;;;;;;;;;5044680;28;20021;-54
2021/09/15 03:03:04;;;;;;;8.98;5.90;;;;;;;;;;5039571;28;20095;-55
2021/09/15 03:05:31;;;;;;;6.75;4.72;;;;;;;;;;5052479;28;20025;-55
2021/09/15 03:07:57;;;;;;;9.15;6.35;;;;;;;;;;5059170;28;20029;-54
2021/09/15 03:10:23;;;;;;;10.40;5.72;;;;;;;;;;5060613;28;20036;-56
2021/09/15 03:12:49;;;;;;;10.55;6.32;;;;;;;;;;5044040;28;20021;-55
2021/09/15 03:15:15;;;;;;;10.02;6.38;;;;;;;;;;5064201;28;20037;-56
2021/09/15 03:17:41;;;;;;;9.40;6.18;;;;;;;;;;5051123;28;20373;-53
2021/09/15 03:20:08;;;;;;;10.55;6.05;;;;;;;;;;5064269;28;20106;-56
2021/09/15 03:22:34;;;;;;;8.70;5.57;;;;;;;;;;5055856;28;20029;-57
2021/09/15 03:25:00;;;;;;;8.38;5.82;;;;;;;;;;5050536;28;20135;-56
2021/09/15 03:27:25;;;;;;;8.73;6.10;;;;;;;;;;5047863;28;20469;-54
2021/09/15 03:29:52;;;;;;;7.47;5.45;;;;;;;;;;5057105;28;20028;-53
2021/09/15 03:32:17;;;;;;;9.45;5.95;;;;;;;;;;5049383;28;20051;-56
2021/09/15 03:34:43;;;;;;;7.55;5.38;;;;;;;;;;5045882;28;20028;-54
2021/09/15 03:37:10;;;;;;;12.13;5.75;;;;;;;;;;5051800;28;20497;-56
2021/09/15 03:39:36;;;;;;;9.18;5.97;;;;;;;;;;5052332;28;20123;-57
2021/09/15 03:42:02;;;;;;;10.57;6.70;;;;;;;;;;5052491;28;20115;-57
2021/09/15 03:44:28;;;;;;;10.77;6.53;;;;;;;;;;5053542;28;20548;-53
2021/09/15 03:46:54;;;;;;;10.75;6.47;;;;;;;;;;5034508;28;20050;-56
2021/09/15 03:49:20;;;;;;;11.35;6.18;;;;;;;;;;5049372;28;20078;-56
2021/09/15 03:51:48;;;;;;;10.40;6.10;;;;;;;;;;5051480;28;20358;-55
2021/09/15 03:54:14;;;;;;;9.32;6.07;;;;;;;;;;5046134;28;20029;-55
2021/09/15 03:56:40;;;;;;;10.55;6.47;;;;;;;;;;5046250;28;20033;-54
2021/09/15 03:59:06;;;;;;;10.48;6.88;;;;;;;;;;5051563;28;20128;-55
2021/09/15 04:01:32;;;;;;;9.90;6.28;;;;;;;;;;5054011;28;20040;-54
2021/09/15 04:03:58;;;;;;;11.88;6.15;;;;;;;;;;5048443;28;20036;-58
2021/09/15 04:06:24;;;;;;;8.70;5.65;;;;;;;;;;5050051;28;20029;-57
2021/09/15 04:08:50;;;;;;;10.15;6.28;;;;;;;;;;5050380;28;20473;-55
2021/09/15 04:11:16;;;;;;;12.88;6.45;;;;;;;;;;5054673;28;20032;-53
2021/09/15 04:13:42;;;;;;;9.57;6.45;;;;;;;;;;5055077;28;20029;-52
2021/09/15 04:16:08;;;;;;;10.77;5.95;;;;;;;;;;5050882;28;20035;-54
2021/09/15 04:18:34;;;;;;;11.10;6.22;;;;;;;;;;5050224;28;20055;-54
2021/09/15 04:21:00;;;;;;;9.52;6.60;;;;;;;;;;5055463;28;20032;-55
2021/09/15 04:23:34;;;;;;;11.35;6.63;;;;;;;;;;5046975;28;20453;-52
2021/09/15 04:31:31;;;;;;;10.93;7.35;;;;;;;;;;5052872;28;20083;-55
2021/09/15 04:33:58;;;;;;;10.80;6.47;;;;;;;;;;5053939;28;20032;-53
2021/09/15 04:36:24;;;;;;;10.18;6.68;;;;;;;;;;5041679;28;20514;-55
2021/09/15 04:38:50;;;;;;;10.88;7.15;;;;;;;;;;5043978;28;20166;-54
2021/09/15 04:41:16;;;;;;;9.55;6.43;;;;;;;;;;5032021;28;20057;-55
2021/09/15 04:43:42;;;;;;;10.25;6.60;;;;;;;;;;5051704;28;20429;-53
2021/09/15 04:46:09;;;;;;;8.90;6.25;;;;;;;;;;5023882;28;20025;-56
2021/09/15 04:48:37;;;;;;;9.50;6.35;;;;;;;;;;5041914;28;20449;-55
2021/09/15 04:51:03;;;;;;;10.25;6.32;;;;;;;;;;5052702;28;20052;-57
2021/09/15 04:53:29;;;;;;;9.00;5.78;;;;;;;;;;5035346;28;20076;-56
2021/09/15 04:55:55;;;;;;;12.40;6.82;;;;;;;;;;5046256;28;20446;-58
2021/09/15 04:58:21;;;;;;;9.40;6.18;;;;;;;;;;5051599;28;20033;-58
2021/09/15 05:00:47;;;;;;;12.98;7.50;;;;;;;;;;5045362;28;20037;-58
2021/09/15 05:03:13;;;;;;;11.63;6.90;;;;;;;;;;5045826;28;20028;-57
2021/09/15 05:05:39;;;;;;;9.95;6.68;;;;;;;;;;5051561;28;20021;-56
2021/09/15 05:08:05;;;;;;;10.48;6.75;;;;;;;;;;5050775;28;20057;-57
2021/09/15 05:10:30;;;;;;;9.77;6.20;;;;;;;;;;5042726;28;20120;-54
2021/09/15 05:12:57;;;;;;;10.48;6.07;;;;;;;;;;5047424;28;20025;-56
2021/09/15 05:15:23;;;;;;;7.90;5.43;;;;;;;;;;5045867;28;20108;-56
2021/09/15 05:17:50;;;;;;;12.93;7.22;;;;;;;;;;5041432;28;20040;-57
2021/09/15 05:20:19;;;;;;;10.95;6.72;;;;;;;;;;5051643;28;20053;-58
2021/09/15 05:22:46;;;;;;;11.30;7.10;;;;;;;;;;5052551;28;20025;-55
2021/09/15 05:25:12;;;;;;;10.70;6.07;;;;;;;;;;5054072;28;20091;-54
2021/09/15 05:27:38;;;;;;;9.80;6.43;;;;;;;;;;5045295;28;20112;-55
2021/09/15 05:30:04;;;;;;;10.30;5.78;;;;;;;;;;5048372;28;20025;-55
2021/09/15 05:32:30;;;;;;;11.48;7.03;;;;;;;;;;5046305;28;20389;-56
2021/09/15 05:34:56;;;;;;;8.25;5.93;;;;;;;;;;5053073;28;20029;-54
2021/09/15 05:37:22;;;;;;;9.88;7.05;;;;;;;;;;5046758;28;20498;-53
2021/09/15 05:39:48;;;;;;;8.80;6.15;;;;;;;;;;5055733;28;20452;-55
2021/09/15 05:42:14;;;;;;;10.15;6.50;;;;;;;;;;5064028;28;20051;-54
2021/09/15 05:44:40;;;;;;;11.20;6.63;;;;;;;;;;5052715;28;20112;-58
2021/09/15 05:47:06;;;;;;;8.65;6.22;;;;;;;;;;5038399;28;20033;-58
2021/09/15 05:49:32;;;;;;;9.82;6.95;;;;;;;;;;5041549;28;20033;-58
2021/09/15 05:51:58;;;;;;;9.77;6.47;;;;;;;;;;5047233;28;20053;-58
2021/09/15 05:54:24;;;;;;;11.25;6.40;;;;;;;;;;5047247;28;20482;-56
2021/09/15 05:56:50;;;;;;;9.90;6.38;;;;;;;;;;5056050;28;20029;-57
2021/09/15 05:59:16;;;;;;;12.60;6.97;;;;;;;;;;5063120;28;20435;-58
2021/09/15 06:01:42;;;;;;;11.50;6.82;;;;;;;;;;5067371;28;20364;-57
2021/09/15 06:04:08;;;;;;;10.20;6.22;;;;;;;;;;5060342;28;20428;-55
2021/09/15 06:06:34;;;;;;;11.15;6.10;;;;;;;;;;5052195;28;20163;-56
2021/09/15 06:09:00;;;;;;;10.65;7.07;;;;;;;;;;5054799;28;20031;-56
2021/09/15 06:11:26;;;;;;;9.18;6.07;;;;;;;;;;5056778;28;20028;-55
2021/09/15 06:13:54;;;;;;;10.95;6.40;;;;;;;;;;5045261;28;20112;-55
2021/09/15 06:16:20;;;;;;;12.48;7.32;;;;;;;;;;5062126;28;20070;-55
2021/09/15 06:18:46;;;;;;;12.07;6.60;;;;;;;;;;5053926;28;20073;-52
2021/09/15 06:21:12;;;;;;;11.48;6.88;;;;;;;;;;5039737;28;20459;-54
2021/09/15 06:23:39;;;;;;;9.27;6.40;;;;;;;;;;5058284;28;20026;-57
2021/09/15 06:26:05;;;;;;;9.43;6.30;;;;;;;;;;5058193;28;20039;-56
2021/09/15 06:28:31;;;;;;;11.95;6.82;;;;;;;;;;5055525;28;20481;-55
2021/09/15 06:31:01;;;;;;;10.80;6.70;;;;;;;;;;5052152;28;20029;-57
2021/09/15 06:33:27;;;;;;;10.30;6.13;;;;;;;;;;5051669;28;20547;-57
2021/09/15 06:35:54;;;;;;;10.85;6.22;;;;;;;;;;5050990;28;20033;-57
2021/09/15 06:38:20;;;;;;;8.77;6.45;;;;;;;;;;5060411;28;20032;-57
2021/09/15 06:40:47;;;;;;;7.88;5.80;;;;;;;;;;5048639;28;20029;-58
2021/09/15 06:43:12;;;;;;;9.07;6.05;;;;;;;;;;5049496;28;20057;-58
2021/09/15 06:45:38;;;;;;;9.43;5.50;;;;;;;;;;5048909;28;20052;-57
2021/09/15 06:48:05;;;;;;;7.70;5.25;;;;;;;;;;5056903;28;20036;-56
2021/09/15 06:50:31;;;;;;;7.78;5.88;;;;;;;;;;5044709;28;20359;-57
2021/09/15 06:52:57;;;;;;;9.63;6.10;;;;;;;;;;5036996;28;20028;-54
2021/09/15 06:55:26;;;;;;;10.38;6.10;;;;;;;;;;5043321;28;20040;-55
2021/09/15 06:57:52;;;;;;;10.20;6.30;;;;;;;;;;5044370;28;20029;-53
2021/09/15 07:00:19;;;;;;;7.00;5.13;;;;;;;;;;5045957;28;20025;-56
2021/09/15 07:02:45;;;;;;;10.88;6.55;;;;;;;;;;5051242;28;20068;-51
2021/09/15 07:05:11;;;;;;;11.25;6.22;;;;;;;;;;5058903;28;20109;-52
2021/09/15 07:07:37;;;;;;;10.73;6.65;;;;;;;;;;5046473;28;20558;-54
2021/09/15 07:10:04;;;;;;;9.77;5.68;;;;;;;;;;5056578;28;20055;-55
2021/09/15 07:12:30;;;;;;;10.85;6.45;;;;;;;;;;5062941;28;20119;-54
2021/09/15 07:14:56;;;;;;;8.82;6.15;;;;;;;;;;5047070;28;20459;-51
2021/09/15 07:17:22;;;;;;;9.65;6.43;;;;;;;;;;5050865;28;20025;-52
2021/09/15 07:19:48;;;;;;;7.88;5.95;;;;;;;;;;5046231;28;20092;-56
2021/09/15 07:22:14;;;;;;;9.32;6.22;;;;;;;;;;5057052;28;20036;-57
2021/09/15 07:24:40;;;;;;;8.63;5.75;;;;;;;;;;5055892;28;20108;-58
2021/09/15 07:27:06;;;;;;;8.85;6.25;;;;;;;;;;5051332;28;20362;-57
2021/09/15 07:29:32;;;;;;;9.00;6.10;;;;;;;;;;5050119;28;20037;-55
2021/09/15 07:31:58;;;;;;;11.02;6.32;;;;;;;;;;5055549;28;20456;-55
2021/09/15 07:34:24;;;;;;;8.35;5.32;;;;;;;;;;5054394;28;20119;-56
2021/09/15 07:36:50;;;;;;;8.63;6.07;;;;;;;;;;5047502;28;20108;-55
2021/09/15 07:39:16;;;;;;;8.30;4.80;;;;;;;;;;5051513;28;20109;-57
2021/09/15 07:41:42;;;;;;;9.07;5.72;;;;;;;;;;5041570;28;20358;-57
2021/09/15 07:44:08;;;;;;;9.43;5.93;;;;;;;;;;5054588;28;20068;-56
2021/09/15 07:46:34;;;;;;;8.27;4.95;;;;;;;;;;5045174;28;20029;-56
2021/09/15 07:49:00;;;;;;;11.75;5.85;;;;;;;;;;5049728;28;20033;-57
2021/09/15 07:51:26;;;;;;;7.60;4.50;;;;;;;;;;5049056;28;20017;-58
2021/09/15 07:53:52;;;;;;;9.27;5.57;;;;;;;;;;5046495;28;20037;-51
2021/09/15 07:56:19;;;;;;;7.35;5.05;;;;;;;;;;5043661;28;20021;-55
2021/09/15 07:58:45;;;;;;;7.95;4.50;;;;;;;;;;5050824;28;20600;-54
2021/09/15 08:01:11;;;;;;;11.15;5.43;;;;;;;;;;5065281;28;20464;-53
2021/09/15 08:03:37;;;;;;;10.07;5.55;;;;;;;;;;5056578;28;20025;-56
2021/09/15 08:06:04;;;;;;;7.70;4.60;;;;;;;;;;5040137;28;20085;-54
2021/09/15 08:08:30;;;;;;;7.15;5.07;;;;;;;;;;5048317;28;20056;-57
2021/09/15 08:10:57;;;;;;;7.18;4.88;;;;;;;;;;5041008;28;20025;-57
2021/09/15 08:13:25;;;;;;;8.70;4.63;;;;;;;;;;5048442;28;20063;-58
2021/09/15 08:15:51;;;;;;;7.03;5.00;;;;;;;;;;5046123;28;20025;-57
2021/09/15 08:18:17;;;;;;;9.40;5.30;;;;;;;;;;5051896;28;20123;-55
2021/09/15 08:20:46;;;;;;;9.82;5.60;;;;;;;;;;5053190;28;20048;-53
2021/09/15 08:23:12;;;;;;;5.82;4.03;;;;;;;;;;5052586;28;20028;-51
2021/09/15 08:25:38;;;;;;;7.72;4.72;;;;;;;;;;5059978;28;20059;-56
2021/09/15 08:28:05;;;;;;;5.65;4.32;;;;;;;;;;5048307;28;20025;-54
2021/09/15 08:30:31;;;;;;;6.95;4.35;;;;;;;;;;5054000;28;20360;-54
2021/09/15 08:32:58;;;;;;;9.05;5.75;;;;;;;;;;5048390;28;20041;-54
2021/09/15 08:35:24;;;;;;;6.80;4.57;;;;;;;;;;5051575;28;20372;-51
2021/09/15 08:37:50;;;;;;;6.93;4.30;;;;;;;;;;5052424;28;20041;-55
2021/09/15 08:40:16;;;;;;;6.75;4.05;;;;;;;;;;5048834;28;20029;-53
2021/09/15 08:42:42;;;;;;;5.95;4.00;;;;;;;;;;5055951;28;20116;-52
2021/09/15 08:45:09;;;;;;;6.43;4.40;;;;;;;;;;5059300;28;20025;-55
2021/09/15 08:47:38;;;;;;;5.25;4.03;;;;;;;;;;5054764;28;20036;-56
2021/09/15 08:50:05;;;;;;;5.40;3.85;;;;;;;;;;5049813;28;20554;-52
2021/09/15 08:52:31;;;;;;;5.75;4.18;;;;;;;;;;5049947;28;20063;-55
2021/09/15 08:54:57;;;;;;;9.15;4.38;;;;;;;;;;5057878;28;20495;-51
2021/09/15 08:57:23;;;;;;;5.88;3.92;;;;;;;;;;5051022;28;20025;-55
2021/09/15 08:59:49;;;;;;;6.38;4.45;;;;;;;;;;5060333;28;20029;-57
2021/09/15 09:02:15;;;;;;;5.43;4.13;;;;;;;;;;5063341;28;20459;-58
2021/09/15 09:05:00;;;;;;;6.15;3.90;;;;;;;;;;5066399;28;20016;-57
2021/09/15 09:07:27;;;;;;;7.28;3.90;;;;;;;;;;5050229;28;20025;-57
2021/09/15 09:09:53;;;;;;;7.68;4.18;;;;;;;;;;5052295;28;20044;-57
2021/09/15 09:12:22;;;;;;;10.05;4.18;;;;;;;;;;5064222;28;20107;-56
2021/09/15 09:14:48;;;;;;;9.63;4.00;;;;;;;;;;5054171;28;20412;-56
2021/09/15 09:17:29;;;;;;;6.03;4.15;;;;;;;;;;5057677;28;20078;-57
2021/09/15 09:20:12;;;;;;;6.57;4.32;;;;;;;;;;5065086;28;20056;-55
2021/09/15 09:22:58;;;;;;;6.28;3.92;;;;;;;;;;5050822;28;20033;-51
2021/09/15 09:25:25;;;;;;;6.80;3.60;;;;;;;;;;5036486;28;20167;-58
2021/09/15 09:27:51;;;;;;;6.25;4.03;;;;;;;;;;5061237;28;20108;-55
2021/09/15 09:30:49;;;;;;;5.45;3.55;;;;;;;;;;5053275;28;20048;-55
2021/09/15 09:33:16;;;;;;;6.35;3.13;;;;;;;;;;4993211;28;20397;-57
2021/09/15 09:35:44;;;;;;;8.02;4.40;;;;;;;;;;5052181;28;20017;-55
2021/09/15 09:38:28;;;;;;;5.97;3.97;;;;;;;;;;5062312;28;20063;-58
2021/09/15 09:40:55;;;;;;;5.50;3.80;;;;;;;;;;5054265;28;20461;-57
2021/09/15 09:43:21;;;;;;;5.30;3.83;;;;;;;;;;5042277;28;20033;-58
2021/09/15 09:45:48;;;;;;;4.72;3.60;;;;;;;;;;5054367;28;20478;-57
2021/09/15 09:48:29;;;;;;;4.53;3.58;;;;;;;;;;5037333;28;20378;-58
2021/09/15 09:50:55;;;;;;;4.65;3.60;;;;;;;;;;5042742;28;20124;-57
2021/09/15 09:53:21;;;;;;;6.25;3.60;;;;;;;;;;5051607;28;20105;-57
2021/09/15 09:55:49;;;;;;;5.88;3.80;;;;;;;;;;5047620;28;20429;-57
2021/09/15 09:58:17;;;;;;;6.95;3.80;;;;;;;;;;5056812;28;20049;-53
2021/09/15 10:00:44;;;;;;;6.07;4.05;;;;;;;;;;5043782;28;20027;-57
2021/09/15 10:03:10;;;;;;;7.03;4.43;;;;;;;;;;5051853;28;20426;-57
2021/09/15 10:05:36;;;;;;;5.55;3.72;;;;;;;;;;5051887;28;20025;-55
2021/09/15 10:08:03;;;;;;;4.75;3.28;;;;;;;;;;5044076;28;20080;-54
2021/09/15 10:10:29;;;;;;;4.18;3.10;;;;;;;;;;5051010;28;20028;-56
2021/09/15 10:12:56;;;;;;;6.57;3.50;;;;;;;;;;5045549;28;20638;-57
2021/09/15 10:15:22;;;;;;;5.93;3.40;;;;;;;;;;5050364;28;20388;-52
2021/09/15 10:17:50;;;;;;;6.65;3.60;;;;;;;;;;5058758;28;20017;-54
2021/09/15 10:20:17;;;;;;;5.88;3.85;;;;;;;;;;5060009;28;20106;-53
2021/09/15 10:22:47;;;;;;;5.03;3.88;;;;;;;;;;5052308;28;20078;-51
2021/09/15 10:25:13;;;;;;;5.28;3.17;;;;;;;;;;5046718;28;20040;-54
2021/09/15 10:27:59;;;;;;;7.95;3.50;;;;;;;;;;5064334;28;20028;-53
2021/09/15 10:30:41;;;;;;;4.10;3.40;;;;;;;;;;5047720;28;20035;-55
2021/09/15 10:33:07;;;;;;;4.93;3.50;;;;;;;;;;5048304;28;20025;-56
2021/09/15 10:35:44;;;;;;;5.45;3.85;;;;;;;;;;5054628;28;20108;-52
2021/09/15 10:38:10;;;;;;;5.18;3.63;;;;;;;;;;5032569;28;20021;-54
2021/09/15 10:40:36;;;;;;;5.63;3.50;;;;;;;;;;5047735;28;20032;-54
2021/09/15 10:43:03;;;;;;;5.28;3.75;;;;;;;;;;5055012;28;20033;-55
2021/09/15 10:45:30;;;;;;;4.88;3.42;;;;;;;;;;5052769;28;20028;-55
2021/09/15 10:48:01;;;;;;;4.80;3.78;;;;;;;;;;5047947;28;20025;-55
2021/09/15 10:50:30;;;;;;;4.93;3.40;;;;;;;;;;5058873;28;20041;-55
2021/09/15 10:53:02;;;;;;;5.03;3.20;;;;;;;;;;5047336;28;20040;-57
2021/09/15 10:55:27;;;;;;;10.52;3.97;;;;;;;;;;5049514;28;20111;-53
2021/09/15 10:57:53;;;;;;;6.18;3.40;;;;;;;;;;5057893;28;20112;-52
2021/09/15 11:00:21;;;;;;;7.95;3.60;;;;;;;;;;5062955;28;20067;-54
2021/09/15 11:02:51;;;;;;;6.22;2.97;;;;;;;;;;5050456;28;20405;-53
2021/09/15 11:05:25;;;;;;;4.70;3.50;;;;;;;;;;5062380;28;20470;-55
2021/09/15 11:07:53;;;;;;;6.40;3.78;;;;;;;;;;5053835;28;20035;-57
2021/09/15 11:10:34;;;;;;;5.15;3.40;;;;;;;;;;5044919;28;20033;-52
2021/09/15 11:13:07;;;;;;;4.70;3.72;;;;;;;;;;5050000;28;20025;-55
2021/09/15 11:15:33;;;;;;;;;;;;;;;;;;5037992;28;20036;-51
2021/09/15 11:17:59;;;;;;;5.43;3.78;;;;;;;;;;5049078;28;19908;-55
2021/09/15 11:20:27;;;;;;;5.00;3.22;;;;;;;;;;5048477;28;20374;-53
2021/09/15 11:22:53;;;;;;;5.13;3.58;;;;;;;;;;5045648;28;20112;-55
2021/09/15 11:25:20;;;;;;;6.32;3.92;;;;;;;;;;5065086;28;20062;-57
2021/09/15 11:28:05;;;;;;;7.07;4.32;;;;;;;;;;5054646;28;20120;-55
2021/09/15 11:30:31;;;;;;;5.60;3.75;;;;;;;;;;5046256;28;20111;-54
2021/09/15 11:32:58;;;;;;;5.22;3.22;;;;;;;;;;5053073;28;20361;-52
2021/09/15 11:35:24;;;;;;;5.40;3.60;;;;;;;;;;5065734;28;20024;-51
2021/09/15 11:37:50;;;;;;;5.35;3.80;;;;;;;;;;5044720;28;20107;-52
2021/09/15 11:40:16;;;;;;;4.45;3.38;;;;;;;;;;5062333;28;20025;-55
2021/09/15 11:42:42;;;;;;;4.03;3.30;;;;;;;;;;5049762;28;20032;-54
2021/09/15 11:45:15;;;;;;;5.72;3.90;;;;;;;;;;5045763;28;20542;-55
2021/09/15 11:47:45;;;;;;;6.63;3.65;;;;;;;;;;5049226;28;20040;-52
2021/09/15 11:50:26;;;;;;;6.03;3.63;;;;;;;;;;5038200;28;20388;-56
2021/09/15 11:52:56;;;;;;;5.90;4.03;;;;;;;;;;5050556;28;20034;-52
2021/09/15 11:55:23;;;;;;;5.95;3.45;;;;;;;;;;5049599;28;20035;-52
2021/09/15 11:57:50;;;;;;;5.63;4.03;;;;;;;;;;5038003;28;20021;-56
2021/09/15 12:00:16;;;;;;;6.25;3.75;;;;;;;;;;5039793;28;20427;-52
2021/09/15 12:02:44;;;;;;;7.18;3.97;;;;;;;;;;5055557;28;20036;-57
2021/09/15 12:05:10;;;;;;;5.80;3.83;;;;;;;;;;5046983;28;20124;-53
2021/09/15 12:07:37;;;;;;;5.70;3.88;;;;;;;;;;5036664;28;20124;-55
2021/09/15 12:10:06;;;;;;;5.88;3.60;;;;;;;;;;5032215;28;20037;-54
2021/09/15 12:12:33;;;;;;;7.05;3.47;;;;;;;;;;5032434;28;20080;-56
2021/09/15 12:15:01;;;;;;;3.92;2.85;;;;;;;;;;5032055;28;20502;-55
2021/09/15 12:17:27;;;;;;;3.58;2.67;;;;;;;;;;5034928;28;20029;-54
2021/09/15 12:19:56;;;;;;;3.30;2.58;;;;;;;;;;5043927;28;20087;-57
2021/09/15 12:22:27;;;;;;;4.35;2.60;;;;;;;;;;5035995;28;20469;-57
2021/09/15 12:25:01;;;;;;;3.40;2.58;;;;;;;;;;5037305;28;20040;-53
2021/09/15 12:27:27;;;;;;;;;;;;;;;;;;5034816;28;20038;-51
2021/09/15 12:30:06;;;;;;;3.95;2.75;;;;;;;;;;5038485;28;19966;-51
2021/09/15 12:32:36;;;;;;;4.10;2.78;;;;;;;;;;5062695;28;20036;-51
2021/09/15 12:35:02;;;;;;;3.50;2.47;;;;;;;;;;5068625;28;20707;-51
2021/09/15 12:37:36;;;;;;;4.32;2.80;;;;;;;;;;5068393;28;20025;-50
2021/09/15 12:40:03;;;;;;;4.90;2.80;;;;;;;;;;5047236;28;20068;-52
2021/09/15 12:42:33;;;;;;;3.95;3.00;;;;;;;;;;5046418;28;20035;-53
2021/09/15 12:44:59;;;;;;;4.65;3.15;;;;;;;;;;5049005;28;20041;-53
2021/09/15 12:47:33;;;;;;;5.50;3.53;;;;;;;;;;5050422;28;20048;-51
2021/09/15 12:50:03;;;;;;;5.53;3.45;;;;;;;;;;5050762;28;20037;-52
2021/09/15 12:52:29;;;;;;;7.53;3.40;;;;;;;;;;5044178;28;20029;-55
2021/09/15 12:54:57;;;;;;;8.10;4.30;;;;;;;;;;5050372;28;20020;-51
2021/09/15 12:57:30;;;;;;;5.57;3.85;;;;;;;;;;5043673;28;20034;-51
2021/09/15 13:00:16;;;;;;;8.07;4.13;;;;;;;;;;5053270;28;20116;-50
2021/09/15 13:03:05;;;;;;;8.02;4.90;;;;;;;;;;5053541;28;20167;-51
2021/09/15 13:05:32;;;;;;;9.27;4.13;;;;;;;;;;5046078;28;20497;-52
2021/09/15 13:07:59;;;;;;;6.45;3.72;;;;;;;;;;5036579;28;20098;-52
2021/09/15 13:10:25;;;;;;;6.28;4.43;;;;;;;;;;5045710;28;20025;-52
2021/09/15 13:12:51;;;;;;;9.15;4.75;;;;;;;;;;5046783;28;20099;-51
2021/09/15 13:15:17;;;;;;;7.47;4.18;;;;;;;;;;5046979;28;20065;-52
2021/09/15 13:17:44;;;;;;;6.75;4.28;;;;;;;;;;5056828;28;20040;-53
2021/09/15 13:20:10;;;;;;;8.50;4.95;;;;;;;;;;5046964;28;20056;-55
2021/09/15 13:22:37;;;;;;;8.30;5.40;;;;;;;;;;5052688;28;20124;-53
2021/09/15 13:25:03;;;;;;;8.80;4.78;;;;;;;;;;5057105;28;20041;-53
2021/09/15 13:27:30;;;;;;;7.88;4.47;;;;;;;;;;5053333;28;20028;-55
2021/09/15 13:29:55;;;;;;;7.25;4.40;;;;;;;;;;5047753;28;20025;-54
2021/09/15 13:32:22;;;;;;;9.20;4.78;;;;;;;;;;5051685;28;20493;-55
2021/09/15 13:34:47;;;;;;;6.97;4.55;;;;;;;;;;5053115;28;20043;-51
2021/09/15 13:37:13;;;;;;;7.95;4.78;;;;;;;;;;5056894;28;20033;-51
2021/09/15 13:39:39;;;;;;;7.82;4.10;;;;;;;;;;5048170;28;20044;-54
2021/09/15 13:42:06;;;;;;;5.13;3.63;;;;;;;;;;5052929;28;20033;-50
2021/09/15 13:44:32;;;;;;;7.80;4.38;;;;;;;;;;5048150;28;20370;-50
2021/09/15 13:46:58;;;;;;;6.75;3.72;;;;;;;;;;5054062;28;20111;-53
2021/09/15 13:49:24;;;;;;;7.60;4.88;;;;;;;;;;5054433;28;20020;-56
2021/09/15 13:51:51;;;;;;;6.53;4.20;;;;;;;;;;5040816;28;20072;-52
2021/09/15 13:54:17;;;;;;;5.95;3.75;;;;;;;;;;5053933;28;20059;-52
2021/09/15 13:56:44;;;;;;;7.50;3.90;;;;;;;;;;5046964;28;20076;-49
2021/09/15 13:59:10;;;;;;;10.10;4.82;;;;;;;;;;5052548;28;20029;-50
2021/09/15 14:01:36;;;;;;;6.57;4.35;;;;;;;;;;5047939;28;20473;-54
2021/09/15 14:04:02;;;;;;;6.20;4.40;;;;;;;;;;5053851;28;20104;-55
2021/09/15 14:06:28;;;;;;;6.30;4.15;;;;;;;;;;5055037;28;20028;-52
2021/09/15 14:08:54;;;;;;;7.55;4.40;;;;;;;;;;5045841;28;20519;-54
2021/09/15 14:11:20;;;;;;;7.60;4.60;;;;;;;;;;5048548;28;20035;-54
2021/09/15 14:13:46;;;;;;;8.00;4.63;;;;;;;;;;5045254;28;20100;-50
2021/09/15 14:16:12;;;;;;;6.72;4.68;;;;;;;;;;5052256;28;20021;-55
2021/09/15 14:18:38;;;;;;;6.88;4.15;;;;;;;;;;5047218;28;20059;-52
2021/09/15 14:21:05;;;;;;;8.30;4.70;;;;;;;;;;5047333;28;20048;-56
2021/09/15 14:23:31;;;;;;;7.57;4.65;;;;;;;;;;5046527;28;20025;-57
2021/09/15 14:25:57;;;;;;;6.63;4.15;;;;;;;;;;5049682;28;20064;-54
2021/09/15 14:28:23;;;;;;;9.60;5.25;;;;;;;;;;5046430;28;20056;-54
2021/09/15 14:30:49;;;;;;;6.63;4.53;;;;;;;;;;5047492;28;20069;-51
2021/09/15 14:33:15;;;;;;;7.43;4.45;;;;;;;;;;5045715;28;20542;-54
2021/09/15 14:35:41;;;;;;;10.50;4.70;;;;;;;;;;5055447;28;20043;-55
2021/09/15 14:38:07;;;;;;;8.38;4.95;;;;;;;;;;5052105;28;20037;-56
2021/09/15 14:40:33;;;;;;;9.98;4.75;;;;;;;;;;5047964;28;20768;-53
2021/09/15 14:42:59;;;;;;;8.93;4.70;;;;;;;;;;5044556;28;20477;-55
2021/09/15 14:45:25;;;;;;;8.52;5.15;;;;;;;;;;5046506;28;20029;-50